Time,TemperatureF,DewpointF,PressureIn,WindDirection,WindDirectionDegrees,WindSpeedMPH,WindSpeedGustMPH,Humidity,HourlyPrecipIn,Conditions,Clouds,dailyrainin,SolarRadiationWatts/m^2,SoftwareType,DateUTC
2013-05-16 00:05:00,67.1,47.8,23.06,ENE,59,6.0,13.0,50,0.00,,,0.00,1004,Wunderground v.1.15,2013-05-16 05:05:00,
2013-05-16 00:11:00,66.4,47.7,23.07,ENE,59,4.0,5.0,51,0.00,,,0.00,986,Wunderground v.1.15,2013-05-16 05:11:00,
2013-05-16 00:17:00,66.4,48.2,23.07,NE,52,4.0,5.0,52,0.00,,,0.00,979,Wunderground v.1.15,2013-05-16 05:17:00,
2013-05-16 00:23:00,65.8,48.2,23.07,ENE,64,4.0,4.0,53,0.00,,,0.00,972,Wunderground v.1.15,2013-05-16 05:23:00,
2013-05-16 00:29:00,65.4,48.3,23.08,NE,51,4.0,5.0,54,0.00,,,0.00,953,Wunderground v.1.15,2013-05-16 05:29:00,
2013-05-16 00:36:00,65.6,48.5,23.08,NE,52,4.0,5.0,54,0.00,,,0.00,953,Wunderground v.1.15,2013-05-16 05:36:00,
2013-05-16 00:41:00,65.3,48.2,23.09,NE,56,3.0,4.0,54,0.00,,,0.00,944,Wunderground v.1.15,2013-05-16 05:41:00,
2013-05-16 00:47:00,64.6,48.5,23.09,ENE,61,3.0,4.0,56,0.00,,,0.00,935,Wunderground v.1.15,2013-05-16 05:47:00,
2013-05-16 00:53:00,64.3,48.3,23.10,ENE,64,3.0,3.0,56,0.00,,,0.00,930,Wunderground v.1.15,2013-05-16 05:53:00,
2013-05-16 00:59:00,64.0,48.5,23.10,ENE,57,3.0,3.0,57,0.00,,,0.00,918,Wunderground v.1.15,2013-05-16 05:59:00,
2013-05-16 01:05:00,64.6,48.5,23.11,NE,48,3.0,12.0,56,0.00,,,0.00,932,Wunderground v.1.15,2013-05-16 06:05:00,
2013-05-16 01:11:00,64.1,48.5,23.11,NE,48,1.0,2.0,57,0.00,,,0.00,919,Wunderground v.1.15,2013-05-16 06:11:00,
2013-05-16 01:18:00,63.3,48.7,23.12,NE,49,1.0,3.0,59,0.00,,,0.00,907,Wunderground v.1.15,2013-05-16 06:18:00,
2013-05-16 01:23:00,63.2,48.6,23.12,ENE,61,3.0,4.0,59,0.00,,,0.00,898,Wunderground v.1.15,2013-05-16 06:23:00,
2013-05-16 01:29:00,62.9,48.8,23.13,ENE,78,4.0,5.0,60,0.00,,,0.00,896,Wunderground v.1.15,2013-05-16 06:29:00,
2013-05-16 01:36:00,63.1,49.0,23.13,ESE,114,4.0,5.0,60,0.00,,,0.00,891,Wunderground v.1.15,2013-05-16 06:36:00,
2013-05-16 01:41:00,63.9,49.3,23.14,ESE,103,3.0,6.0,59,0.00,,,0.00,904,Wunderground v.1.15,2013-05-16 06:41:00,
2013-05-16 01:47:00,64.2,49.6,23.14,ESE,107,3.0,6.0,59,0.00,,,0.00,921,Wunderground v.1.15,2013-05-16 06:47:00,
2013-05-16 01:53:00,64.0,49.4,23.15,SE,134,1.0,3.0,59,0.00,,,0.00,928,Wunderground v.1.15,2013-05-16 06:53:00,
2013-05-16 01:59:00,63.4,50.1,23.15,SE,134,1.0,2.0,62,0.00,,,0.00,905,Wunderground v.1.15,2013-05-16 06:59:00,
2013-05-16 02:05:00,63.5,50.7,23.16,SE,134,2.0,6.0,63,0.00,,,0.00,900,Wunderground v.1.15,2013-05-16 07:05:00,
2013-05-16 02:11:00,63.5,50.7,23.16,SE,134,2.0,3.0,63,0.00,,,0.00,925,Wunderground v.1.15,2013-05-16 07:11:00,
2013-05-16 02:18:00,63.5,50.7,23.17,SE,134,2.0,3.0,63,0.00,,,0.00,889,Wunderground v.1.15,2013-05-16 07:18:00,
2013-05-16 02:23:00,63.2,50.8,23.17,SE,134,0.0,1.0,64,0.00,,,0.00,902,Wunderground v.1.15,2013-05-16 07:23:00,
2013-05-16 02:29:00,62.9,51.4,23.18,SE,134,0.0,0.0,66,0.00,,,0.00,877,Wunderground v.1.15,2013-05-16 07:29:00,
2013-05-16 02:35:00,62.7,51.2,23.18,SE,134,0.0,1.0,66,0.00,,,0.00,868,Wunderground v.1.15,2013-05-16 07:35:00,
2013-05-16 02:41:00,62.2,50.7,23.18,SE,134,0.0,1.0,66,0.00,,,0.00,872,Wunderground v.1.15,2013-05-16 07:41:00,
2013-05-16 02:47:00,62.0,49.7,23.19,SE,134,0.0,1.0,64,0.00,,,0.00,872,Wunderground v.1.15,2013-05-16 07:47:00,
2013-05-16 02:53:00,61.7,49.8,23.20,SE,134,0.0,1.0,65,0.00,,,0.00,860,Wunderground v.1.15,2013-05-16 07:53:00,
2013-05-16 02:59:00,62.3,50.4,23.20,SE,134,1.0,1.0,65,0.00,,,0.00,865,Wunderground v.1.15,2013-05-16 07:59:00,
2013-05-16 03:05:00,61.8,49.5,23.21,SE,134,1.0,6.0,64,0.00,,,0.00,870,Wunderground v.1.15,2013-05-16 08:05:00,
2013-05-16 03:11:00,61.5,50.0,23.22,SE,134,0.0,1.0,66,0.00,,,0.00,870,Wunderground v.1.15,2013-05-16 08:11:00,
2013-05-16 03:17:00,61.2,49.7,23.22,SE,134,0.0,1.0,66,0.00,,,0.00,849,Wunderground v.1.15,2013-05-16 08:17:00,
2013-05-16 03:23:00,61.1,49.7,23.22,SE,134,0.0,0.0,66,0.00,,,0.00,846,Wunderground v.1.15,2013-05-16 08:23:00,
2013-05-16 03:29:00,60.6,49.2,23.23,SE,134,0.0,0.0,66,0.00,,,0.00,842,Wunderground v.1.15,2013-05-16 08:29:00,
2013-05-16 03:35:00,59.8,49.2,23.23,SE,134,0.0,0.0,68,0.00,,,0.00,823,Wunderground v.1.15,2013-05-16 08:35:00,
2013-05-16 03:41:00,59.3,49.1,23.24,SE,134,0.0,0.0,69,0.00,,,0.00,803,Wunderground v.1.15,2013-05-16 08:41:00,
2013-05-16 03:47:00,58.6,49.2,23.24,SE,134,0.0,0.0,71,0.00,,,0.00,796,Wunderground v.1.15,2013-05-16 08:47:00,
2013-05-16 03:53:00,58.2,50.0,23.25,SE,134,0.0,0.0,74,0.00,,,0.00,786,Wunderground v.1.15,2013-05-16 08:53:00,
2013-05-16 03:59:00,57.9,50.0,23.25,SE,134,0.0,0.0,75,0.00,,,0.00,786,Wunderground v.1.15,2013-05-16 08:59:00,
2013-05-16 04:06:00,57.6,50.4,23.26,SE,134,0.0,4.0,77,0.00,,,0.00,772,Wunderground v.1.15,2013-05-16 09:06:00,
2013-05-16 04:11:00,57.5,50.7,23.27,SE,134,0.0,0.0,78,0.00,,,0.00,780,Wunderground v.1.15,2013-05-16 09:11:00,
2013-05-16 04:18:00,57.8,52.7,23.27,SE,135,1.0,2.0,83,0.00,,,0.00,779,Wunderground v.1.15,2013-05-16 09:18:00,
2013-05-16 04:23:00,58.4,53.9,23.28,SE,134,2.0,2.0,85,0.00,,,0.00,788,Wunderground v.1.15,2013-05-16 09:23:00,
2013-05-16 04:29:00,59.2,55.0,23.28,SE,135,2.0,2.0,86,0.00,,,0.00,817,Wunderground v.1.15,2013-05-16 09:29:00,
2013-05-16 04:35:00,59.6,55.1,23.29,SE,135,1.0,2.0,85,0.00,,,0.00,833,Wunderground v.1.15,2013-05-16 09:35:00,
2013-05-16 04:41:00,59.6,54.8,23.29,SE,135,0.0,1.0,84,0.00,,,0.00,840,Wunderground v.1.15,2013-05-16 09:41:00,
2013-05-16 04:48:00,59.6,55.1,23.29,SE,135,0.0,1.0,85,0.00,,,0.00,835,Wunderground v.1.15,2013-05-16 09:48:00,
2013-05-16 04:53:00,59.7,55.2,23.30,SE,135,0.0,0.0,85,0.00,,,0.00,838,Wunderground v.1.15,2013-05-16 09:53:00,
2013-05-16 04:59:00,59.6,55.1,23.30,SE,135,0.0,0.0,85,0.00,,,0.00,844,Wunderground v.1.15,2013-05-16 09:59:00,
2013-05-16 05:06:00,59.5,55.0,23.31,SE,135,0.0,2.0,85,0.00,,,0.00,828,Wunderground v.1.15,2013-05-16 10:06:00,
2013-05-16 05:11:00,59.3,54.8,23.31,SE,134,0.0,0.0,85,0.00,,,0.00,810,Wunderground v.1.15,2013-05-16 10:11:00,
2013-05-16 05:18:00,59.1,54.9,23.32,SE,135,0.0,0.0,86,0.00,,,0.00,793,Wunderground v.1.15,2013-05-16 10:18:00,
2013-05-16 05:23:00,59.0,54.8,23.32,SE,135,0.0,0.0,86,0.00,,,0.00,782,Wunderground v.1.15,2013-05-16 10:23:00,
2013-05-16 05:29:00,58.4,54.2,23.32,SE,135,0.0,0.0,86,0.00,,,0.00,761,Wunderground v.1.15,2013-05-16 10:29:00,
2013-05-16 05:35:00,58.3,54.4,23.33,SE,134,0.0,0.0,87,0.00,,,0.00,731,Wunderground v.1.15,2013-05-16 10:35:00,
2013-05-16 05:41:00,57.7,53.5,23.33,SE,134,0.0,1.0,86,0.00,,,0.00,707,Wunderground v.1.15,2013-05-16 10:41:00,
2013-05-16 05:47:00,57.4,53.6,23.34,SE,134,0.0,1.0,87,0.00,,,0.00,680,Wunderground v.1.15,2013-05-16 10:47:00,
2013-05-16 05:53:00,57.1,53.6,23.34,SE,134,0.0,0.0,88,0.00,,,0.00,656,Wunderground v.1.15,2013-05-16 10:53:00,
2013-05-16 05:59:00,57.0,53.5,23.35,SE,134,0.0,0.0,88,0.00,,,0.00,629,Wunderground v.1.15,2013-05-16 10:59:00,
2013-05-16 06:06:00,56.9,53.7,23.35,SE,134,0.0,4.0,89,0.00,,,0.00,621,Wunderground v.1.15,2013-05-16 11:06:00,
2013-05-16 06:11:00,56.8,53.6,23.36,SE,134,0.0,0.0,89,0.00,,,0.00,601,Wunderground v.1.15,2013-05-16 11:11:00,
2013-05-16 06:18:00,56.8,53.6,23.36,SE,134,0.0,0.0,89,0.00,,,0.00,571,Wunderground v.1.15,2013-05-16 11:18:00,
2013-05-16 06:23:00,56.8,54.5,23.37,SE,135,0.0,0.0,92,0.00,,,0.00,563,Wunderground v.1.15,2013-05-16 11:23:00,
2013-05-16 06:29:00,57.1,54.5,23.37,SE,134,0.0,2.0,91,0.00,,,0.00,555,Wunderground v.1.15,2013-05-16 11:29:00,
2013-05-16 06:35:00,57.9,55.3,23.38,SE,135,1.0,2.0,91,0.00,,,0.00,573,Wunderground v.1.15,2013-05-16 11:35:00,
2013-05-16 06:41:00,58.5,56.2,23.38,SE,136,1.0,4.0,92,0.00,,,0.00,584,Wunderground v.1.15,2013-05-16 11:41:00,
2013-05-16 06:47:00,59.5,57.2,23.38,SSE,151,3.0,4.0,92,0.00,,,0.00,592,Wunderground v.1.15,2013-05-16 11:47:00,
2013-05-16 06:53:00,59.9,57.3,23.39,SSE,151,2.0,3.0,91,0.00,,,0.00,598,Wunderground v.1.15,2013-05-16 11:53:00,
2013-05-16 06:59:00,60.3,57.4,23.39,SSE,167,3.0,3.0,90,0.00,,,0.00,594,Wunderground v.1.15,2013-05-16 11:59:00,
2013-05-16 07:05:00,60.8,57.8,23.40,SSW,199,4.0,5.0,90,0.00,,,0.00,594,Wunderground v.1.15,2013-05-16 12:05:00,
2013-05-16 07:11:00,61.3,58.0,23.40,SSW,200,4.0,4.0,89,0.00,,,0.00,606,Wunderground v.1.15,2013-05-16 12:11:00,
2013-05-16 07:17:00,61.8,58.2,23.40,SSW,206,4.0,5.0,88,0.00,,,0.00,624,Wunderground v.1.15,2013-05-16 12:17:00,
2013-05-16 07:23:00,62.1,58.2,23.40,SW,221,4.0,5.0,87,0.00,,,0.00,624,Wunderground v.1.15,2013-05-16 12:23:00,
2013-05-16 07:29:00,62.4,58.5,23.41,SW,225,4.0,5.0,87,0.00,,,0.00,622,Wunderground v.1.15,2013-05-16 12:29:00,
2013-05-16 07:36:00,62.6,58.4,23.41,SW,229,4.0,7.0,86,0.00,,,0.00,633,Wunderground v.1.15,2013-05-16 12:36:00,
2013-05-16 07:41:00,62.7,58.5,23.40,SW,234,6.0,6.0,86,0.00,,,0.00,621,Wunderground v.1.15,2013-05-16 12:41:00,
2013-05-16 07:47:00,63.1,58.8,23.39,WSW,240,5.0,6.0,86,0.00,,,0.00,622,Wunderground v.1.15,2013-05-16 12:47:00,
2013-05-16 07:53:00,63.3,59.0,23.38,WSW,238,5.0,6.0,86,0.00,,,0.00,613,Wunderground v.1.15,2013-05-16 12:53:00,
2013-05-16 07:59:00,63.7,59.1,23.37,SW,236,5.0,5.0,85,0.00,,,0.00,619,Wunderground v.1.15,2013-05-16 12:59:00,
2013-05-16 08:05:00,64.1,59.5,23.36,WSW,239,5.0,6.0,85,0.00,,,0.00,633,Wunderground v.1.15,2013-05-16 13:05:00,
2013-05-16 08:11:00,64.4,59.5,23.36,WSW,240,4.0,4.0,84,0.00,,,0.00,626,Wunderground v.1.15,2013-05-16 13:11:00,
2013-05-16 08:17:00,65.0,60.0,23.35,WSW,242,4.0,5.0,84,0.00,,,0.00,638,Wunderground v.1.15,2013-05-16 13:17:00,
2013-05-16 08:23:00,65.6,60.3,23.34,WSW,241,4.0,6.0,83,0.00,,,0.00,656,Wunderground v.1.15,2013-05-16 13:23:00,
2013-05-16 08:29:00,66.3,60.3,23.33,SW,225,4.0,6.0,81,0.00,,,0.00,680,Wunderground v.1.15,2013-05-16 13:29:00,
2013-05-16 08:35:00,66.8,60.1,23.33,SW,234,4.0,6.0,79,0.00,,,0.00,691,Wunderground v.1.15,2013-05-16 13:35:00,
2013-05-16 08:41:00,67.5,60.0,23.32,SW,234,4.0,4.0,77,0.00,,,0.00,707,Wunderground v.1.15,2013-05-16 13:41:00,
2013-05-16 08:48:00,68.0,60.2,23.31,SW,234,3.0,5.0,76,0.00,,,0.00,715,Wunderground v.1.15,2013-05-16 13:48:00,
2013-05-16 08:55:00,68.8,60.2,23.30,WSW,240,2.0,3.0,74,0.00,,,0.00,735,Wunderground v.1.15,2013-05-16 13:55:00,
2013-05-16 09:01:00,69.2,60.6,23.29,WSW,240,2.0,8.0,74,0.00,,,0.00,766,Wunderground v.1.15,2013-05-16 14:01:00,
2013-05-16 09:07:00,70.1,60.7,23.28,WSW,240,1.0,8.0,72,0.00,,,0.00,844,Wunderground v.1.15,2013-05-16 14:07:00,
2013-05-16 09:13:00,70.9,61.0,23.28,WSW,240,0.0,1.0,71,0.00,,,0.00,926,Wunderground v.1.15,2013-05-16 14:13:00,
2013-05-16 09:19:00,71.8,60.7,23.27,SW,227,1.0,1.0,68,0.00,,,0.00,1007,Wunderground v.1.15,2013-05-16 14:19:00,
2013-05-16 09:25:00,72.1,60.1,23.26,South,188,2.0,2.0,66,0.00,,,0.00,1074,Wunderground v.1.15,2013-05-16 14:25:00,
2013-05-16 09:31:00,72.3,61.1,23.25,South,172,1.0,3.0,68,0.00,,,0.00,1111,Wunderground v.1.15,2013-05-16 14:31:00,
2013-05-16 09:37:00,72.2,61.0,23.24,South,172,1.0,3.0,68,0.00,,,0.00,1107,Wunderground v.1.15,2013-05-16 14:37:00,
2013-05-16 09:43:00,72.4,60.4,23.23,SSE,147,1.0,3.0,66,0.00,,,0.00,1085,Wunderground v.1.15,2013-05-16 14:43:00,
2013-05-16 09:49:00,72.3,60.7,23.22,SE,146,1.0,1.0,67,0.00,,,0.00,1027,Wunderground v.1.15,2013-05-16 14:49:00,
2013-05-16 09:56:00,72.8,60.3,23.22,SE,146,2.0,4.0,65,0.00,,,0.00,1018,Wunderground v.1.15,2013-05-16 14:56:00,
2013-05-16 10:01:00,73.1,60.2,23.22,SE,146,2.0,7.0,64,0.00,,,0.00,1009,Wunderground v.1.15,2013-05-16 15:01:00,
2013-05-16 10:07:00,73.5,59.7,23.21,SSE,160,3.0,7.0,62,0.00,,,0.00,962,Wunderground v.1.15,2013-05-16 15:07:00,
2013-05-16 10:13:00,73.8,60.0,23.20,SSE,164,4.0,4.0,62,0.00,,,0.00,954,Wunderground v.1.15,2013-05-16 15:13:00,
2013-05-16 10:19:00,74.3,60.0,23.19,SSE,148,3.0,4.0,61,0.00,,,0.00,1002,Wunderground v.1.15,2013-05-16 15:19:00,
2013-05-16 10:25:00,74.9,60.1,23.17,SSE,147,4.0,7.0,60,0.00,,,0.00,1021,Wunderground v.1.15,2013-05-16 15:25:00,
2013-05-16 10:31:00,75.4,60.5,23.16,SE,141,5.0,5.0,60,0.00,,,0.00,1023,Wunderground v.1.15,2013-05-16 15:31:00,
2013-05-16 10:38:00,76.0,61.1,23.16,SSE,162,6.0,6.0,60,0.00,,,0.00,1030,Wunderground v.1.15,2013-05-16 15:38:00,
2013-05-16 10:43:00,76.1,60.7,23.16,SE,134,7.0,9.0,59,0.00,,,0.00,1021,Wunderground v.1.15,2013-05-16 15:43:00,
2013-05-16 10:49:00,75.7,60.4,23.15,SE,135,6.0,11.0,59,0.00,,,0.00,1021,Wunderground v.1.15,2013-05-16 15:49:00,
2013-05-16 10:56:00,76.0,61.1,23.14,ESE,115,5.0,11.0,60,0.00,,,0.00,1023,Wunderground v.1.15,2013-05-16 15:56:00,
2013-05-16 11:01:00,76.0,60.6,23.13,SE,133,5.0,8.0,59,0.00,,,0.00,1016,Wunderground v.1.15,2013-05-16 16:01:00,
2013-05-16 11:08:00,75.9,61.0,23.12,SSW,195,7.0,11.0,60,0.00,,,0.00,974,Wunderground v.1.15,2013-05-16 16:08:00,
2013-05-16 11:13:00,76.4,60.5,23.12,SE,144,7.0,10.0,58,0.00,,,0.00,977,Wunderground v.1.15,2013-05-16 16:13:00,
2013-05-16 11:19:00,76.3,60.4,23.11,SE,142,7.0,7.0,58,0.00,,,0.00,1009,Wunderground v.1.15,2013-05-16 16:19:00,
2013-05-16 11:26:00,76.2,59.9,23.10,SSE,148,7.0,11.0,57,0.00,,,0.00,1013,Wunderground v.1.15,2013-05-16 16:26:00,
2013-05-16 11:31:00,76.6,59.2,23.09,SSE,157,7.0,11.0,55,0.00,,,0.00,1014,Wunderground v.1.15,2013-05-16 16:31:00,
2013-05-16 11:38:00,76.9,59.0,23.09,SSE,155,8.0,11.0,54,0.00,,,0.00,984,Wunderground v.1.15,2013-05-16 16:38:00,
2013-05-16 11:43:00,77.6,60.2,23.08,SSW,198,7.0,12.0,55,0.00,,,0.00,990,Wunderground v.1.15,2013-05-16 16:43:00,
2013-05-16 11:49:00,78.1,59.0,23.07,South,187,9.0,9.0,52,0.00,,,0.00,1005,Wunderground v.1.15,2013-05-16 16:49:00,
2013-05-16 11:55:00,77.7,59.2,23.06,SSE,159,10.0,13.0,53,0.00,,,0.00,958,Wunderground v.1.15,2013-05-16 16:55:00,
2013-05-16 12:01:00,77.9,59.4,23.05,SE,128,9.0,14.0,53,0.00,,,0.00,974,Wunderground v.1.15,2013-05-16 17:01:00,
2013-05-16 12:07:00,78.3,58.7,23.04,SSE,153,9.0,15.0,51,0.00,,,0.00,1004,Wunderground v.1.15,2013-05-16 17:07:00,
2013-05-16 12:13:00,78.4,57.7,23.03,South,176,10.0,12.0,49,0.00,,,0.00,1027,Wunderground v.1.15,2013-05-16 17:13:00,
2013-05-16 12:19:00,79.3,59.0,23.03,South,179,10.0,11.0,50,0.00,,,0.00,1037,Wunderground v.1.15,2013-05-16 17:19:00,
2013-05-16 12:25:00,79.3,59.0,23.02,SSW,203,10.0,13.0,50,0.00,,,0.00,1042,Wunderground v.1.15,2013-05-16 17:25:00,
2013-05-16 12:31:00,79.2,59.0,23.01,SE,134,11.0,14.0,50,0.00,,,0.00,1004,Wunderground v.1.15,2013-05-16 17:31:00,
2013-05-16 12:37:00,79.3,59.0,23.00,South,178,11.0,22.0,50,0.00,,,0.00,1011,Wunderground v.1.15,2013-05-16 17:37:00,
2013-05-16 12:43:00,79.3,59.0,22.99,SSE,167,11.0,11.0,50,0.00,,,0.00,1004,Wunderground v.1.15,2013-05-16 17:43:00,
2013-05-16 12:49:00,79.5,59.8,22.98,SE,143,11.0,16.0,51,0.00,,,0.00,1013,Wunderground v.1.15,2013-05-16 17:49:00,
2013-05-16 12:55:00,79.4,60.2,22.98,South,179,11.0,16.0,52,0.00,,,0.00,1028,Wunderground v.1.15,2013-05-16 17:55:00,
2013-05-16 13:01:00,79.4,59.7,22.97,SSE,164,12.0,16.0,51,0.00,,,0.00,1058,Wunderground v.1.15,2013-05-16 18:01:00,
2013-05-16 13:07:00,79.4,60.2,22.97,South,170,11.0,16.0,52,0.00,,,0.00,1025,Wunderground v.1.15,2013-05-16 18:07:00,
2013-05-16 13:13:00,79.5,59.8,22.97,South,171,12.0,12.0,51,0.00,,,0.00,1030,Wunderground v.1.15,2013-05-16 18:13:00,
2013-05-16 13:19:00,80.0,58.5,22.96,SSE,152,12.0,12.0,48,0.00,,,0.00,1018,Wunderground v.1.15,2013-05-16 18:19:00,
2013-05-16 13:25:00,80.0,58.5,22.95,South,185,12.0,13.0,48,0.00,,,0.00,1051,Wunderground v.1.15,2013-05-16 18:25:00,
2013-05-16 13:31:00,80.0,59.7,22.96,SSE,148,12.0,14.0,50,0.00,,,0.00,1018,Wunderground v.1.15,2013-05-16 18:31:00,
2013-05-16 13:38:00,79.7,59.4,22.95,SSE,152,13.0,14.0,50,0.00,,,0.00,1021,Wunderground v.1.15,2013-05-16 18:38:00,
2013-05-16 13:43:00,79.6,59.3,22.94,SSW,194,13.0,15.0,50,0.00,,,0.00,1000,Wunderground v.1.15,2013-05-16 18:43:00,
2013-05-16 13:49:00,79.6,59.3,22.94,SSW,194,13.0,20.0,50,0.00,,,0.00,998,Wunderground v.1.15,2013-05-16 18:49:00,
2013-05-16 13:56:00,79.8,58.4,22.94,South,172,13.0,20.0,48,0.00,,,0.00,988,Wunderground v.1.15,2013-05-16 18:56:00,
2013-05-16 14:01:00,80.1,58.6,22.93,South,169,13.0,22.0,48,0.00,,,0.00,1014,Wunderground v.1.15,2013-05-16 19:01:00,
2013-05-16 14:07:00,80.4,58.3,22.93,South,171,12.0,22.0,47,0.00,,,0.00,1034,Wunderground v.1.15,2013-05-16 19:07:00,
2013-05-16 14:13:00,80.7,56.8,22.92,South,178,12.0,13.0,44,0.00,,,0.00,1067,Wunderground v.1.15,2013-05-16 19:13:00,
2013-05-16 14:19:00,81.4,56.8,22.92,South,188,12.0,12.0,43,0.00,,,0.00,1079,Wunderground v.1.15,2013-05-16 19:19:00,
2013-05-16 14:25:00,81.3,57.3,22.91,SSW,213,12.0,17.0,44,0.00,,,0.00,1093,Wunderground v.1.15,2013-05-16 19:25:00,
2013-05-16 14:31:00,81.4,56.1,22.90,South,180,12.0,12.0,42,0.00,,,0.00,1041,Wunderground v.1.15,2013-05-16 19:31:00,
2013-05-16 14:37:00,81.7,57.0,22.90,South,183,13.0,15.0,43,0.00,,,0.00,1034,Wunderground v.1.15,2013-05-16 19:37:00,
2013-05-16 14:43:00,81.8,56.5,22.90,South,173,14.0,14.0,42,0.00,,,0.00,1023,Wunderground v.1.15,2013-05-16 19:43:00,
2013-05-16 14:49:00,81.5,56.8,22.89,ESE,122,13.0,14.0,43,0.00,,,0.00,1037,Wunderground v.1.15,2013-05-16 19:49:00,
2013-05-16 14:55:00,81.7,57.0,22.90,South,172,12.0,16.0,43,0.00,,,0.00,1063,Wunderground v.1.15,2013-05-16 19:55:00,
2013-05-16 15:01:00,81.9,58.5,22.90,SSW,212,11.0,13.0,45,0.00,,,0.00,1085,Wunderground v.1.15,2013-05-16 20:01:00,
2013-05-16 15:08:00,82.3,57.6,22.90,South,183,11.0,22.0,43,0.00,,,0.00,1078,Wunderground v.1.15,2013-05-16 20:08:00,
2013-05-16 15:13:00,82.4,58.9,22.90,SW,214,11.0,14.0,45,0.00,,,0.00,1072,Wunderground v.1.15,2013-05-16 20:13:00,
2013-05-16 15:19:00,82.3,57.6,22.89,SSW,203,12.0,12.0,43,0.00,,,0.00,1063,Wunderground v.1.15,2013-05-16 20:19:00,
2013-05-16 15:25:00,82.3,57.6,22.89,SSW,199,12.0,16.0,43,0.00,,,0.00,1079,Wunderground v.1.15,2013-05-16 20:25:00,
2013-05-16 15:31:00,82.2,57.5,22.89,South,179,12.0,12.0,43,0.00,,,0.00,1056,Wunderground v.1.15,2013-05-16 20:31:00,
2013-05-16 15:37:00,82.0,57.3,22.88,SSW,196,11.0,13.0,43,0.00,,,0.00,1111,Wunderground v.1.15,2013-05-16 20:37:00,
2013-05-16 15:43:00,81.3,57.3,22.88,SSW,209,11.0,17.0,44,0.00,,,0.00,1060,Wunderground v.1.15,2013-05-16 20:43:00,
2013-05-16 15:49:00,81.2,57.2,22.88,South,186,13.0,13.0,44,0.00,,,0.00,1013,Wunderground v.1.15,2013-05-16 20:49:00,
2013-05-16 15:55:00,81.9,57.8,22.87,SSW,196,11.0,14.0,44,0.00,,,0.00,1035,Wunderground v.1.15,2013-05-16 20:55:00,
2013-05-16 16:01:00,81.8,57.8,22.88,SE,129,12.0,22.0,44,0.00,,,0.00,1106,Wunderground v.1.15,2013-05-16 21:01:00,
2013-05-16 16:07:00,81.4,58.0,22.88,South,179,11.0,22.0,45,0.00,,,0.00,1100,Wunderground v.1.15,2013-05-16 21:07:00,
2013-05-16 16:13:00,81.3,57.9,22.86,South,183,12.0,22.0,45,0.00,,,0.00,1079,Wunderground v.1.15,2013-05-16 21:13:00,
2013-05-16 16:19:00,81.2,57.8,22.87,SSE,168,12.0,12.0,45,0.00,,,0.00,1088,Wunderground v.1.15,2013-05-16 21:19:00,
2013-05-16 16:25:00,80.6,57.9,22.87,South,178,12.0,14.0,46,0.00,,,0.00,1041,Wunderground v.1.15,2013-05-16 21:25:00,
2013-05-16 16:31:00,81.1,58.4,22.86,SSE,159,13.0,16.0,46,0.00,,,0.00,1028,Wunderground v.1.15,2013-05-16 21:31:00,
2013-05-16 16:38:00,80.9,58.2,22.87,SE,140,13.0,16.0,46,0.00,,,0.00,1055,Wunderground v.1.15,2013-05-16 21:38:00,
2013-05-16 16:43:00,81.3,57.9,22.86,SE,137,13.0,13.0,45,0.00,,,0.00,1065,Wunderground v.1.15,2013-05-16 21:43:00,
2013-05-16 16:49:00,81.1,57.7,22.85,South,187,12.0,12.0,45,0.00,,,0.00,1100,Wunderground v.1.15,2013-05-16 21:49:00,
2013-05-16 16:55:00,80.5,57.8,22.83,South,180,13.0,16.0,46,0.00,,,0.00,1069,Wunderground v.1.15,2013-05-16 21:55:00,
2013-05-16 17:01:00,80.6,58.5,22.82,SSE,150,12.0,13.0,47,0.00,,,0.00,1042,Wunderground v.1.15,2013-05-16 22:01:00,
2013-05-16 17:07:00,81.0,57.7,22.82,SSE,148,11.0,22.0,45,0.00,,,0.00,1076,Wunderground v.1.15,2013-05-16 22:07:00,
2013-05-16 17:13:00,80.7,57.4,22.81,SSW,204,12.0,16.0,45,0.00,,,0.00,1034,Wunderground v.1.15,2013-05-16 22:13:00,
2013-05-16 17:19:00,80.1,57.5,22.81,SSE,161,11.0,11.0,46,0.00,,,0.00,1034,Wunderground v.1.15,2013-05-16 22:19:00,
2013-05-16 17:25:00,79.6,57.6,22.80,South,178,10.0,12.0,47,0.00,,,0.00,1021,Wunderground v.1.15,2013-05-16 22:25:00,
2013-05-16 17:31:00,79.7,57.1,22.80,SSE,160,12.0,14.0,46,0.00,,,0.00,1021,Wunderground v.1.15,2013-05-16 22:31:00,
2013-05-16 17:38:00,80.2,57.5,22.79,SSE,156,14.0,18.0,46,0.00,,,0.00,1013,Wunderground v.1.15,2013-05-16 22:38:00,
2013-05-16 17:43:00,80.9,56.9,22.79,SSE,160,13.0,14.0,44,0.00,,,0.00,1049,Wunderground v.1.15,2013-05-16 22:43:00,
2013-05-16 17:49:00,81.3,57.9,22.79,SE,128,13.0,13.0,45,0.00,,,0.00,1107,Wunderground v.1.15,2013-05-16 22:49:00,
2013-05-16 17:56:00,81.0,58.3,22.79,SSE,167,13.0,16.0,46,0.00,,,0.00,1100,Wunderground v.1.15,2013-05-16 22:56:00,
2013-05-16 18:01:00,80.9,58.2,22.78,SSE,162,13.0,21.0,46,0.00,,,0.00,1102,Wunderground v.1.15,2013-05-16 23:01:00,
2013-05-16 18:07:00,80.6,57.9,22.78,SSE,153,13.0,21.0,46,0.00,,,0.00,1100,Wunderground v.1.15,2013-05-16 23:07:00,
2013-05-16 18:13:00,80.4,58.3,22.78,SSE,167,13.0,13.0,47,0.00,,,0.00,1093,Wunderground v.1.15,2013-05-16 23:13:00,
2013-05-16 18:19:00,80.3,58.8,22.78,SSE,159,12.0,12.0,48,0.00,,,0.00,1085,Wunderground v.1.15,2013-05-16 23:19:00,
2013-05-16 18:25:00,79.9,57.9,22.77,SSE,163,12.0,12.0,47,0.00,,,0.00,1078,Wunderground v.1.15,2013-05-16 23:25:00,
2013-05-16 18:31:00,79.7,57.7,22.77,SSE,154,13.0,13.0,47,0.00,,,0.00,1074,Wunderground v.1.15,2013-05-16 23:31:00,
2013-05-16 18:37:00,79.8,58.4,22.77,SSE,164,12.0,14.0,48,0.00,,,0.00,1049,Wunderground v.1.15,2013-05-16 23:37:00,
2013-05-16 18:43:00,79.7,58.3,22.77,SSE,150,13.0,15.0,48,0.00,,,0.00,1053,Wunderground v.1.15,2013-05-16 23:43:00,
2013-05-16 18:49:00,79.8,58.4,22.83,SSE,164,12.0,12.0,48,0.00,,,0.00,1058,Wunderground v.1.15,2013-05-16 23:49:00,
2013-05-16 18:55:00,79.7,58.3,22.77,SSW,200,11.0,12.0,48,0.00,,,0.00,1056,Wunderground v.1.15,2013-05-16 23:55:00,
2013-05-16 19:01:00,79.2,57.8,22.77,South,191,11.0,21.0,48,0.00,,,0.00,1016,Wunderground v.1.15,2013-05-17 00:01:00,
2013-05-16 19:07:00,78.6,58.4,22.77,SSW,192,11.0,21.0,50,0.00,,,0.00,1002,Wunderground v.1.15,2013-05-17 00:07:00,
2013-05-16 19:13:00,78.1,58.5,22.83,SSE,163,11.0,11.0,51,0.00,,,0.00,1014,Wunderground v.1.15,2013-05-17 00:13:00,
2013-05-16 19:19:00,77.4,58.4,22.77,South,188,11.0,14.0,52,0.00,,,0.00,986,Wunderground v.1.15,2013-05-17 00:19:00,
2013-05-16 19:25:00,76.9,58.5,22.77,South,186,11.0,15.0,53,0.00,,,0.00,995,Wunderground v.1.15,2013-05-17 00:25:00,
2013-05-16 19:31:00,76.7,58.3,22.78,SSW,202,11.0,12.0,53,0.00,,,0.00,970,Wunderground v.1.15,2013-05-17 00:31:00,
2013-05-16 19:37:00,76.5,58.1,22.78,SSW,205,10.0,12.0,53,0.00,,,0.00,965,Wunderground v.1.15,2013-05-17 00:37:00,
2013-05-16 19:43:00,76.3,58.4,22.78,SSW,211,11.0,14.0,54,0.00,,,0.00,979,Wunderground v.1.15,2013-05-17 00:43:00,
2013-05-16 19:49:00,76.0,58.7,22.78,SW,229,11.0,11.0,55,0.00,,,0.00,984,Wunderground v.1.15,2013-05-17 00:49:00,
2013-05-16 19:55:00,75.5,58.7,22.79,SW,234,10.0,12.0,56,0.00,,,0.00,974,Wunderground v.1.15,2013-05-17 00:55:00,
2013-05-16 20:01:00,75.1,58.3,22.79,SW,214,9.0,19.0,56,0.00,,,0.00,963,Wunderground v.1.15,2013-05-17 01:01:00,
2013-05-16 20:08:00,74.8,58.5,22.80,SW,217,8.0,19.0,57,0.00,,,0.00,960,Wunderground v.1.15,2013-05-17 01:08:00,
2013-05-16 20:13:00,74.6,58.4,22.80,SW,224,7.0,8.0,57,0.00,,,0.00,967,Wunderground v.1.15,2013-05-17 01:13:00,
2013-05-16 20:19:00,74.2,58.0,22.80,SW,225,6.0,6.0,57,0.00,,,0.00,956,Wunderground v.1.15,2013-05-17 01:19:00,
2013-05-16 20:25:00,73.6,58.4,22.80,SW,225,5.0,6.0,59,0.00,,,0.00,960,Wunderground v.1.15,2013-05-17 01:25:00,
2013-05-16 20:31:00,73.1,57.9,22.81,SW,225,5.0,7.0,59,0.00,,,0.00,951,Wunderground v.1.15,2013-05-17 01:31:00,
2013-05-16 20:37:00,72.6,57.9,22.81,SW,219,4.0,7.0,60,0.00,,,0.00,944,Wunderground v.1.15,2013-05-17 01:37:00,
2013-05-16 20:43:00,72.1,57.9,22.82,SW,219,3.0,3.0,61,0.00,,,0.00,939,Wunderground v.1.15,2013-05-17 01:43:00,
2013-05-16 20:49:00,71.6,57.9,22.82,SW,219,2.0,2.0,62,0.00,,,0.00,932,Wunderground v.1.15,2013-05-17 01:49:00,
2013-05-16 20:56:00,71.0,57.3,22.82,SW,219,1.0,2.0,62,0.00,,,0.00,928,Wunderground v.1.15,2013-05-17 01:56:00,
2013-05-16 21:01:00,70.8,57.6,22.83,SW,218,1.0,19.0,63,0.00,,,0.00,942,Wunderground v.1.15,2013-05-17 02:01:00,
2013-05-16 21:07:00,70.3,56.7,22.83,SW,218,0.0,19.0,62,0.00,,,0.00,940,Wunderground v.1.15,2013-05-17 02:07:00,
2013-05-16 21:13:00,69.5,56.8,22.84,SW,218,0.0,0.0,64,0.00,,,0.00,932,Wunderground v.1.15,2013-05-17 02:13:00,
2013-05-16 21:19:00,68.9,56.6,22.84,SW,218,0.0,0.0,65,0.00,,,0.00,932,Wunderground v.1.15,2013-05-17 02:19:00,
2013-05-16 21:25:00,68.3,56.5,23.45,SW,218,0.0,0.0,66,0.00,,,0.00,928,Wunderground v.1.15,2013-05-17 02:25:00,
2013-05-16 21:31:00,67.8,56.9,22.86,SW,216,0.0,1.0,68,0.00,,,0.00,930,Wunderground v.1.15,2013-05-17 02:31:00,
2013-05-16 21:37:00,67.6,57.1,22.86,SSW,198,1.0,1.0,69,0.00,,,0.00,940,Wunderground v.1.15,2013-05-17 02:37:00,
2013-05-16 21:43:00,67.5,57.0,22.87,SSW,198,0.0,1.0,69,0.00,,,0.00,944,Wunderground v.1.15,2013-05-17 02:43:00,
2013-05-16 21:49:00,67.4,56.9,22.88,SSW,198,0.0,0.0,69,0.00,,,0.00,954,Wunderground v.1.15,2013-05-17 02:49:00,
2013-05-16 21:56:00,67.3,57.2,22.88,SSW,198,0.0,0.0,70,0.00,,,0.00,940,Wunderground v.1.15,2013-05-17 02:56:00,
2013-05-16 22:01:00,67.2,57.1,22.89,SSW,198,0.0,12.0,70,0.00,,,0.00,940,Wunderground v.1.15,2013-05-17 03:01:00,
2013-05-16 22:08:00,67.0,56.9,22.90,SSW,198,0.0,12.0,70,0.00,,,0.00,932,Wunderground v.1.15,2013-05-17 03:08:00,
2013-05-16 22:13:00,66.9,57.2,22.90,SSW,198,0.0,0.0,71,0.00,,,0.00,937,Wunderground v.1.15,2013-05-17 03:13:00,
2013-05-16 22:19:00,66.7,57.0,22.91,SSW,198,0.0,0.0,71,0.00,,,0.00,935,Wunderground v.1.15,2013-05-17 03:19:00,
2013-05-16 22:25:00,66.6,57.3,22.91,SSW,198,0.0,2.0,72,0.00,,,0.00,946,Wunderground v.1.15,2013-05-17 03:25:00,
2013-05-16 22:31:00,66.8,57.5,22.92,SSW,198,1.0,1.0,72,0.00,,,0.00,949,Wunderground v.1.15,2013-05-17 03:31:00,
2013-05-16 22:37:00,66.8,57.5,22.92,South,182,1.0,2.0,72,0.00,,,0.00,958,Wunderground v.1.15,2013-05-17 03:37:00,
2013-05-16 22:43:00,66.7,57.4,22.93,South,182,2.0,2.0,72,0.00,,,0.00,953,Wunderground v.1.15,2013-05-17 03:43:00,
2013-05-16 22:49:00,66.5,57.2,22.93,South,182,0.0,0.0,72,0.00,,,0.00,953,Wunderground v.1.15,2013-05-17 03:49:00,
2013-05-16 22:55:00,66.4,57.9,22.94,South,182,1.0,2.0,74,0.00,,,0.00,949,Wunderground v.1.15,2013-05-17 03:55:00,
2013-05-16 23:01:00,66.6,57.7,22.94,South,171,2.0,3.0,73,0.00,,,0.00,962,Wunderground v.1.15,2013-05-17 04:01:00,
2013-05-16 23:03:00,66.7,57.8,22.94,South,173,2.0,3.0,73,0.00,,,0.00,958,Wunderground v.1.15,2013-05-17 04:03:00,
2013-05-16 23:09:00,67.1,58.2,22.95,South,183,3.0,5.0,73,0.00,,,0.00,967,Wunderground v.1.15,2013-05-17 04:09:00,
2013-05-16 23:15:00,67.9,58.1,22.96,SSW,198,4.0,5.0,71,0.00,,,0.00,1014,Wunderground v.1.15,2013-05-17 04:15:00,
2013-05-16 23:17:00,68.1,57.9,22.96,South,180,4.0,6.0,70,0.00,,,0.00,1005,Wunderground v.1.15,2013-05-17 04:17:00,
2013-05-16 23:23:00,68.4,58.2,22.96,SSE,160,5.0,5.0,70,0.00,,,0.00,1021,Wunderground v.1.15,2013-05-17 04:23:00,
2013-05-16 23:29:00,68.1,57.9,22.97,SE,141,4.0,5.0,70,0.00,,,0.00,1013,Wunderground v.1.15,2013-05-17 04:29:00,
2013-05-16 23:35:00,67.8,58.1,22.97,SE,140,6.0,9.0,71,0.00,,,0.00,1030,Wunderground v.1.15,2013-05-17 04:35:00,
2013-05-16 23:41:00,67.8,58.1,22.98,SSE,165,7.0,8.0,71,0.00,,,0.00,1004,Wunderground v.1.15,2013-05-17 04:41:00,
2013-05-16 23:48:00,68.0,58.2,22.98,SSW,205,6.0,8.0,71,0.00,,,0.00,1014,Wunderground v.1.15,2013-05-17 04:48:00,
2013-05-16 23:53:00,67.9,58.1,22.99,SW,222,5.0,6.0,71,0.00,,,0.00,1016,Wunderground v.1.15,2013-05-17 04:53:00,
2013-05-16 23:59:00,67.5,57.8,22.99,SW,218,5.0,5.0,71,0.00,,,0.00,1004,Wunderground v.1.15,2013-05-17 04:59:00,